sensor_id;sensor_type;location;lat;lon;timestamp;temperature;humidity
30134;DHT22;16946;49.984;10.672;2022-09-09T00:00:11;11.30;99.90
30134;DHT22;16946;49.984;10.672;2022-09-09T00:00:52;11.40;99.90
30134;DHT22;16946;49.984;10.672;2022-09-09T00:03:02;11.50;99.90
30134;DHT22;16946;49.984;10.672;2022-09-09T00:03:53;11.30;99.90
30134;DHT22;16946;49.984;10.672;2022-09-09T00:04:37;11.30;99.90
30134;DHT22;16946;49.984;10.672;2022-09-09T00:05:32;11.20;99.90
30134;DHT22;16946;49.984;10.672;2022-09-09T00:06:24;11.10;99.90
30134;DHT22;16946;49.984;10.672;2022-09-09T00:07:32;11.10;99.90
30134;DHT22;16946;49.984;10.672;2022-09-09T00:08:13;11.10;99.90
30134;DHT22;16946;49.984;10.672;2022-09-09T00:09:35;11.10;99.90
30134;DHT22;16946;49.984;10.672;2022-09-09T00:10:16;11.20;99.90
30134;DHT22;16946;49.984;10.672;2022-09-09T00:10:58;11.20;99.90
30134;DHT22;16946;49.984;10.672;2022-09-09T00:11:40;11.20;99.90
30134;DHT22;16946;49.984;10.672;2022-09-09T00:12:36;11.20;99.90
30134;DHT22;16946;49.984;10.672;2022-09-09T00:13:22;11.20;99.90
30134;DHT22;16946;49.984;10.672;2022-09-09T00:13:57;11.10;99.90
30134;DHT22;16946;49.984;10.672;2022-09-09T00:15:25;11.10;99.90
30134;DHT22;16946;49.984;10.672;2022-09-09T00:16:02;11.10;99.90
30134;DHT22;16946;49.984;10.672;2022-09-09T00:16:39;11.10;99.90
30134;DHT22;16946;49.984;10.672;2022-09-09T00:17:26;11.10;99.90
30134;DHT22;16946;49.984;10.672;2022-09-09T00:19:06;11.00;99.90
30134;DHT22;16946;49.984;10.672;2022-09-09T00:21:17;11.10;99.90
30134;DHT22;16946;49.984;10.672;2022-09-09T00:22:57;11.20;99.90
30134;DHT22;16946;49.984;10.672;2022-09-09T00:23:39;11.10;99.90
30134;DHT22;16946;49.984;10.672;2022-09-09T00:24:24;11.10;99.90
30134;DHT22;16946;49.984;10.672;2022-09-09T00:25:12;11.20;99.90
30134;DHT22;16946;49.984;10.672;2022-09-09T00:26:32;11.10;99.90
30134;DHT22;16946;49.984;10.672;2022-09-09T00:27:48;11.00;99.90
30134;DHT22;16946;49.984;10.672;2022-09-09T00:28:24;11.00;99.90
30134;DHT22;16946;49.984;10.672;2022-09-09T00:29:14;11.00;99.90
30134;DHT22;16946;49.984;10.672;2022-09-09T00:29:54;11.00;99.90
30134;DHT22;16946;49.984;10.672;2022-09-09T00:30:32;11.00;99.90
30134;DHT22;16946;49.984;10.672;2022-09-09T00:31:26;11.00;99.90
30134;DHT22;16946;49.984;10.672;2022-09-09T00:32:05;11.10;99.90
30134;DHT22;16946;49.984;10.672;2022-09-09T00:32:39;11.10;99.90
30134;DHT22;16946;49.984;10.672;2022-09-09T00:33:12;11.20;99.90
30134;DHT22;16946;49.984;10.672;2022-09-09T00:33:46;11.20;99.90
30134;DHT22;16946;49.984;10.672;2022-09-09T00:34:22;11.20;99.90
30134;DHT22;16946;49.984;10.672;2022-09-09T00:35:50;11.20;99.90
30134;DHT22;16946;49.984;10.672;2022-09-09T00:35:57;11.20;99.90
30134;DHT22;16946;49.984;10.672;2022-09-09T00:36:31;11.20;99.90
30134;DHT22;16946;49.984;10.672;2022-09-09T00:37:03;11.20;99.90
30134;DHT22;16946;49.984;10.672;2022-09-09T00:37:34;11.20;99.90
30134;DHT22;16946;49.984;10.672;2022-09-09T00:39:03;11.30;99.90
30134;DHT22;16946;49.984;10.672;2022-09-09T00:39:42;11.30;99.90
30134;DHT22;16946;49.984;10.672;2022-09-09T00:41:26;11.40;99.90
30134;DHT22;16946;49.984;10.672;2022-09-09T00:42:16;11.50;99.90
30134;DHT22;16946;49.984;10.672;2022-09-09T00:42:54;11.50;99.90
30134;DHT22;16946;49.984;10.672;2022-09-09T00:43:38;11.50;99.90
30134;DHT22;16946;49.984;10.672;2022-09-09T00:44:25;11.50;99.90
30134;DHT22;16946;49.984;10.672;2022-09-09T00:45:27;11.40;99.90
30134;DHT22;16946;49.984;10.672;2022-09-09T00:47:51;11.30;99.90
30134;DHT22;16946;49.984;10.672;2022-09-09T00:48:24;11.20;99.90
30134;DHT22;16946;49.984;10.672;2022-09-09T00:50:50;11.20;99.90
30134;DHT22;16946;49.984;10.672;2022-09-09T00:52:22;11.30;99.90
30134;DHT22;16946;49.984;10.672;2022-09-09T00:53:10;11.30;99.90
30134;DHT22;16946;49.984;10.672;2022-09-09T00:54:20;11.30;99.90
30134;DHT22;16946;49.984;10.672;2022-09-09T00:56:19;11.30;99.90
30134;DHT22;16946;49.984;10.672;2022-09-09T00:57:42;11.30;99.90
30134;DHT22;16946;49.984;10.672;2022-09-09T00:57:54;11.30;99.90
30134;DHT22;16946;49.984;10.672;2022-09-09T00:58:26;11.20;99.90
30134;DHT22;16946;49.984;10.672;2022-09-09T01:00:26;11.20;99.90
30134;DHT22;16946;49.984;10.672;2022-09-09T01:01:06;11.30;99.90
30134;DHT22;16946;49.984;10.672;2022-09-09T01:01:39;11.30;99.90
30134;DHT22;16946;49.984;10.672;2022-09-09T01:03:10;11.30;99.90
30134;DHT22;16946;49.984;10.672;2022-09-09T01:03:53;11.30;99.90
30134;DHT22;16946;49.984;10.672;2022-09-09T01:04:34;11.30;99.90
30134;DHT22;16946;49.984;10.672;2022-09-09T01:05:13;11.30;99.90
30134;DHT22;16946;49.984;10.672;2022-09-09T01:06:29;11.30;99.90
30134;DHT22;16946;49.984;10.672;2022-09-09T01:07:17;11.20;99.90
30134;DHT22;16946;49.984;10.672;2022-09-09T01:07:49;11.20;99.90
30134;DHT22;16946;49.984;10.672;2022-09-09T01:08:37;11.10;99.90
30134;DHT22;16946;49.984;10.672;2022-09-09T01:09:12;11.20;99.90
30134;DHT22;16946;49.984;10.672;2022-09-09T01:09:57;11.20;99.90
30134;DHT22;16946;49.984;10.672;2022-09-09T01:12:40;11.10;99.90
30134;DHT22;16946;49.984;10.672;2022-09-09T01:13:20;11.10;99.90
30134;DHT22;16946;49.984;10.672;2022-09-09T01:13:59;11.10;99.90
30134;DHT22;16946;49.984;10.672;2022-09-09T01:15:09;11.10;99.90
30134;DHT22;16946;49.984;10.672;2022-09-09T01:15:42;11.10;99.90
30134;DHT22;16946;49.984;10.672;2022-09-09T01:16:15;11.10;99.90
30134;DHT22;16946;49.984;10.672;2022-09-09T01:16:47;11.10;99.90
30134;DHT22;16946;49.984;10.672;2022-09-09T01:18:07;11.10;99.90
30134;DHT22;16946;49.984;10.672;2022-09-09T01:18:46;11.30;99.90
30134;DHT22;16946;49.984;10.672;2022-09-09T01:19:33;11.70;99.90
30134;DHT22;16946;49.984;10.672;2022-09-09T01:20:27;12.40;99.90
30134;DHT22;16946;49.984;10.672;2022-09-09T01:21:54;13.00;99.90
30134;DHT22;16946;49.984;10.672;2022-09-09T01:22:36;12.60;99.90
30134;DHT22;16946;49.984;10.672;2022-09-09T01:24:33;13.00;99.90
30134;DHT22;16946;49.984;10.672;2022-09-09T01:26:51;12.80;99.90
30134;DHT22;16946;49.984;10.672;2022-09-09T01:27:23;13.00;99.90
30134;DHT22;16946;49.984;10.672;2022-09-09T01:28:03;12.80;99.90
30134;DHT22;16946;49.984;10.672;2022-09-09T01:28:36;13.10;99.90
30134;DHT22;16946;49.984;10.672;2022-09-09T01:29:14;13.40;99.90
30134;DHT22;16946;49.984;10.672;2022-09-09T01:29:45;13.50;99.90
30134;DHT22;16946;49.984;10.672;2022-09-09T01:30:18;13.50;99.90
30134;DHT22;16946;49.984;10.672;2022-09-09T01:30:49;13.50;99.90
30134;DHT22;16946;49.984;10.672;2022-09-09T01:31:32;13.60;99.90
30134;DHT22;16946;49.984;10.672;2022-09-09T01:32:37;13.60;99.90
30134;DHT22;16946;49.984;10.672;2022-09-09T01:33:16;13.40;99.90
30134;DHT22;16946;49.984;10.672;2022-09-09T01:33:48;13.10;99.90
30134;DHT22;16946;49.984;10.672;2022-09-09T01:34:19;12.90;99.90
30134;DHT22;16946;49.984;10.672;2022-09-09T01:34:51;12.70;99.90
30134;DHT22;16946;49.984;10.672;2022-09-09T01:35:34;12.80;99.90
30134;DHT22;16946;49.984;10.672;2022-09-09T01:36:11;13.00;99.90
30134;DHT22;16946;49.984;10.672;2022-09-09T01:37:02;13.20;99.90
30134;DHT22;16946;49.984;10.672;2022-09-09T01:37:35;13.30;99.90
30134;DHT22;16946;49.984;10.672;2022-09-09T01:38:05;13.20;99.90
30134;DHT22;16946;49.984;10.672;2022-09-09T01:38:36;13.10;99.90
30134;DHT22;16946;49.984;10.672;2022-09-09T01:39:07;13.00;99.90
30134;DHT22;16946;49.984;10.672;2022-09-09T01:39:41;12.90;99.90
30134;DHT22;16946;49.984;10.672;2022-09-09T01:40:12;13.00;99.90
30134;DHT22;16946;49.984;10.672;2022-09-09T01:40:43;13.00;99.90
30134;DHT22;16946;49.984;10.672;2022-09-09T01:41:14;13.10;99.90
30134;DHT22;16946;49.984;10.672;2022-09-09T01:41:45;13.10;99.90
30134;DHT22;16946;49.984;10.672;2022-09-09T01:42:16;13.10;99.90
30134;DHT22;16946;49.984;10.672;2022-09-09T01:42:46;13.10;99.90
30134;DHT22;16946;49.984;10.672;2022-09-09T01:43:21;13.10;99.90
30134;DHT22;16946;49.984;10.672;2022-09-09T01:43:54;12.90;99.90
30134;DHT22;16946;49.984;10.672;2022-09-09T01:44:26;12.70;99.90
30134;DHT22;16946;49.984;10.672;2022-09-09T01:44:57;12.70;99.90
30134;DHT22;16946;49.984;10.672;2022-09-09T01:45:28;12.60;99.90
30134;DHT22;16946;49.984;10.672;2022-09-09T01:46:01;13.00;99.90
30134;DHT22;16946;49.984;10.672;2022-09-09T01:46:32;13.10;99.90
30134;DHT22;16946;49.984;10.672;2022-09-09T01:47:03;13.10;99.90
30134;DHT22;16946;49.984;10.672;2022-09-09T01:47:34;12.80;99.90
30134;DHT22;16946;49.984;10.672;2022-09-09T01:48:06;12.70;99.90
30134;DHT22;16946;49.984;10.672;2022-09-09T01:48:36;12.60;99.90
30134;DHT22;16946;49.984;10.672;2022-09-09T01:49:08;12.40;99.90
30134;DHT22;16946;49.984;10.672;2022-09-09T01:49:39;12.40;99.90
30134;DHT22;16946;49.984;10.672;2022-09-09T01:50:10;12.40;99.90
30134;DHT22;16946;49.984;10.672;2022-09-09T01:50:41;12.30;99.90
30134;DHT22;16946;49.984;10.672;2022-09-09T01:51:12;12.20;99.90
30134;DHT22;16946;49.984;10.672;2022-09-09T01:51:43;12.10;99.90
30134;DHT22;16946;49.984;10.672;2022-09-09T01:52:16;12.10;99.90
30134;DHT22;16946;49.984;10.672;2022-09-09T01:52:50;12.10;99.90
30134;DHT22;16946;49.984;10.672;2022-09-09T01:53:23;12.10;99.90
30134;DHT22;16946;49.984;10.672;2022-09-09T01:53:53;12.10;99.90
30134;DHT22;16946;49.984;10.672;2022-09-09T01:54:27;12.10;99.90
30134;DHT22;16946;49.984;10.672;2022-09-09T01:54:59;12.10;99.90
30134;DHT22;16946;49.984;10.672;2022-09-09T01:55:40;12.10;99.90
30134;DHT22;16946;49.984;10.672;2022-09-09T01:56:25;12.10;99.90
30134;DHT22;16946;49.984;10.672;2022-09-09T01:57:24;12.10;99.90
30134;DHT22;16946;49.984;10.672;2022-09-09T02:00:09;12.20;99.90
30134;DHT22;16946;49.984;10.672;2022-09-09T02:00:49;12.40;99.90
30134;DHT22;16946;49.984;10.672;2022-09-09T02:02:30;12.50;99.90
30134;DHT22;16946;49.984;10.672;2022-09-09T02:03:21;12.50;99.90
30134;DHT22;16946;49.984;10.672;2022-09-09T02:03:57;12.60;99.90
30134;DHT22;16946;49.984;10.672;2022-09-09T02:05:29;12.60;99.90
30134;DHT22;16946;49.984;10.672;2022-09-09T02:06:05;12.60;99.90
30134;DHT22;16946;49.984;10.672;2022-09-09T02:06:40;12.60;99.90
30134;DHT22;16946;49.984;10.672;2022-09-09T02:07:40;12.50;99.90
30134;DHT22;16946;49.984;10.672;2022-09-09T02:08:22;12.50;99.90
30134;DHT22;16946;49.984;10.672;2022-09-09T02:08:56;12.50;99.90
30134;DHT22;16946;49.984;10.672;2022-09-09T02:09:29;12.70;99.90
30134;DHT22;16946;49.984;10.672;2022-09-09T02:11:25;12.70;99.90
30134;DHT22;16946;49.984;10.672;2022-09-09T02:12:11;12.60;99.90
30134;DHT22;16946;49.984;10.672;2022-09-09T02:12:47;12.60;99.90
30134;DHT22;16946;49.984;10.672;2022-09-09T02:13:20;12.60;99.90
30134;DHT22;16946;49.984;10.672;2022-09-09T02:13:57;12.60;99.90
30134;DHT22;16946;49.984;10.672;2022-09-09T02:14:34;12.50;99.90
30134;DHT22;16946;49.984;10.672;2022-09-09T02:15:16;12.40;99.90
30134;DHT22;16946;49.984;10.672;2022-09-09T02:16:05;12.40;99.90
30134;DHT22;16946;49.984;10.672;2022-09-09T02:16:40;12.50;99.90
30134;DHT22;16946;49.984;10.672;2022-09-09T02:17:16;12.90;99.90
30134;DHT22;16946;49.984;10.672;2022-09-09T02:17:49;13.00;99.90
30134;DHT22;16946;49.984;10.672;2022-09-09T02:18:28;13.00;99.90
30134;DHT22;16946;49.984;10.672;2022-09-09T02:19:44;12.90;99.90
30134;DHT22;16946;49.984;10.672;2022-09-09T02:20:18;12.80;99.90
30134;DHT22;16946;49.984;10.672;2022-09-09T02:20:50;12.80;99.90
30134;DHT22;16946;49.984;10.672;2022-09-09T02:21:22;12.80;99.90
30134;DHT22;16946;49.984;10.672;2022-09-09T02:21:55;12.80;99.90
30134;DHT22;16946;49.984;10.672;2022-09-09T02:22:28;12.80;99.90
30134;DHT22;16946;49.984;10.672;2022-09-09T02:23:00;12.80;99.90
30134;DHT22;16946;49.984;10.672;2022-09-09T02:23:32;12.80;99.90
30134;DHT22;16946;49.984;10.672;2022-09-09T02:24:06;12.80;99.90
30134;DHT22;16946;49.984;10.672;2022-09-09T02:24:40;12.80;99.90
30134;DHT22;16946;49.984;10.672;2022-09-09T02:25:12;12.70;99.90
30134;DHT22;16946;49.984;10.672;2022-09-09T02:25:45;12.60;99.90
30134;DHT22;16946;49.984;10.672;2022-09-09T02:26:17;12.60;99.90
30134;DHT22;16946;49.984;10.672;2022-09-09T02:26:54;12.60;99.90
30134;DHT22;16946;49.984;10.672;2022-09-09T02:27:26;12.60;99.90
30134;DHT22;16946;49.984;10.672;2022-09-09T02:27:58;12.60;99.90
30134;DHT22;16946;49.984;10.672;2022-09-09T02:28:30;12.60;99.90
30134;DHT22;16946;49.984;10.672;2022-09-09T02:29:03;12.60;99.90
30134;DHT22;16946;49.984;10.672;2022-09-09T02:29:40;12.60;99.90
30134;DHT22;16946;49.984;10.672;2022-09-09T02:30:12;12.70;99.90
30134;DHT22;16946;49.984;10.672;2022-09-09T02:30:45;12.70;99.90
30134;DHT22;16946;49.984;10.672;2022-09-09T02:31:18;12.70;99.90
30134;DHT22;16946;49.984;10.672;2022-09-09T02:31:51;12.70;99.90
30134;DHT22;16946;49.984;10.672;2022-09-09T02:32:25;12.70;99.90
30134;DHT22;16946;49.984;10.672;2022-09-09T02:32:58;12.70;99.90
30134;DHT22;16946;49.984;10.672;2022-09-09T02:33:33;12.90;99.90
30134;DHT22;16946;49.984;10.672;2022-09-09T02:34:06;12.90;99.90
30134;DHT22;16946;49.984;10.672;2022-09-09T02:34:45;13.00;99.90
30134;DHT22;16946;49.984;10.672;2022-09-09T02:35:20;12.90;99.90
30134;DHT22;16946;49.984;10.672;2022-09-09T02:35:53;12.90;99.90
30134;DHT22;16946;49.984;10.672;2022-09-09T02:36:29;12.90;99.90
30134;DHT22;16946;49.984;10.672;2022-09-09T02:37:03;12.80;99.90
30134;DHT22;16946;49.984;10.672;2022-09-09T02:37:37;12.80;99.90
30134;DHT22;16946;49.984;10.672;2022-09-09T02:38:12;12.80;99.90
30134;DHT22;16946;49.984;10.672;2022-09-09T02:38:46;12.80;99.90
30134;DHT22;16946;49.984;10.672;2022-09-09T02:39:20;12.70;99.90
30134;DHT22;16946;49.984;10.672;2022-09-09T02:39:51;12.70;99.90
30134;DHT22;16946;49.984;10.672;2022-09-09T02:40:22;12.70;99.90
30134;DHT22;16946;49.984;10.672;2022-09-09T02:40:52;12.60;99.90
30134;DHT22;16946;49.984;10.672;2022-09-09T02:41:27;12.70;99.90
30134;DHT22;16946;49.984;10.672;2022-09-09T02:42:01;12.80;99.90
30134;DHT22;16946;49.984;10.672;2022-09-09T02:42:40;12.70;99.90
30134;DHT22;16946;49.984;10.672;2022-09-09T02:43:14;12.60;99.90
30134;DHT22;16946;49.984;10.672;2022-09-09T02:43:46;12.60;99.90
30134;DHT22;16946;49.984;10.672;2022-09-09T02:44:18;12.60;99.90
30134;DHT22;16946;49.984;10.672;2022-09-09T02:44:49;12.50;99.90
30134;DHT22;16946;49.984;10.672;2022-09-09T02:45:25;12.60;99.90
30134;DHT22;16946;49.984;10.672;2022-09-09T02:47:24;12.60;99.90
30134;DHT22;16946;49.984;10.672;2022-09-09T02:48:14;12.50;99.90
30134;DHT22;16946;49.984;10.672;2022-09-09T02:49:52;12.50;99.90
30134;DHT22;16946;49.984;10.672;2022-09-09T02:50:33;12.50;99.90
30134;DHT22;16946;49.984;10.672;2022-09-09T02:51:18;12.60;99.90
30134;DHT22;16946;49.984;10.672;2022-09-09T02:52:07;12.50;99.90
30134;DHT22;16946;49.984;10.672;2022-09-09T02:52:50;12.50;99.90
30134;DHT22;16946;49.984;10.672;2022-09-09T02:54:58;12.30;99.90
30134;DHT22;16946;49.984;10.672;2022-09-09T02:55:52;12.30;99.90
30134;DHT22;16946;49.984;10.672;2022-09-09T02:56:28;12.30;99.90
30134;DHT22;16946;49.984;10.672;2022-09-09T02:58:09;12.20;99.90
30134;DHT22;16946;49.984;10.672;2022-09-09T02:58:41;12.70;99.90
30134;DHT22;16946;49.984;10.672;2022-09-09T02:59:12;13.10;99.90
30134;DHT22;16946;49.984;10.672;2022-09-09T02:59:44;13.30;99.90
30134;DHT22;16946;49.984;10.672;2022-09-09T03:00:15;13.40;99.90
30134;DHT22;16946;49.984;10.672;2022-09-09T03:00:47;13.40;99.90
30134;DHT22;16946;49.984;10.672;2022-09-09T03:01:17;13.40;99.90
30134;DHT22;16946;49.984;10.672;2022-09-09T03:01:48;13.60;99.90
30134;DHT22;16946;49.984;10.672;2022-09-09T03:02:19;13.70;99.90
30134;DHT22;16946;49.984;10.672;2022-09-09T03:02:50;13.70;99.90
30134;DHT22;16946;49.984;10.672;2022-09-09T03:03:21;13.80;99.90
30134;DHT22;16946;49.984;10.672;2022-09-09T03:03:52;13.80;99.90
30134;DHT22;16946;49.984;10.672;2022-09-09T03:04:23;13.50;99.90
30134;DHT22;16946;49.984;10.672;2022-09-09T03:04:54;13.40;99.90
30134;DHT22;16946;49.984;10.672;2022-09-09T03:05:25;13.50;99.90
30134;DHT22;16946;49.984;10.672;2022-09-09T03:05:56;13.50;99.90
30134;DHT22;16946;49.984;10.672;2022-09-09T03:06:27;13.50;99.90
30134;DHT22;16946;49.984;10.672;2022-09-09T03:06:58;13.70;99.90
30134;DHT22;16946;49.984;10.672;2022-09-09T03:07:29;13.70;99.90
30134;DHT22;16946;49.984;10.672;2022-09-09T03:07:59;13.60;99.90
30134;DHT22;16946;49.984;10.672;2022-09-09T03:08:30;13.40;99.90
30134;DHT22;16946;49.984;10.672;2022-09-09T03:09:01;13.40;99.90
30134;DHT22;16946;49.984;10.672;2022-09-09T03:09:33;13.40;99.90
30134;DHT22;16946;49.984;10.672;2022-09-09T03:10:03;13.40;99.90
30134;DHT22;16946;49.984;10.672;2022-09-09T03:10:35;13.30;99.90
30134;DHT22;16946;49.984;10.672;2022-09-09T03:11:07;13.10;99.90
30134;DHT22;16946;49.984;10.672;2022-09-09T03:11:39;13.00;99.90
30134;DHT22;16946;49.984;10.672;2022-09-09T03:12:10;13.10;99.90
30134;DHT22;16946;49.984;10.672;2022-09-09T03:12:41;13.20;99.90
30134;DHT22;16946;49.984;10.672;2022-09-09T03:13:12;13.50;99.90
30134;DHT22;16946;49.984;10.672;2022-09-09T03:13:45;13.60;99.90
30134;DHT22;16946;49.984;10.672;2022-09-09T03:14:16;13.60;99.90
30134;DHT22;16946;49.984;10.672;2022-09-09T03:14:47;13.60;99.90
30134;DHT22;16946;49.984;10.672;2022-09-09T03:15:17;13.50;99.90
30134;DHT22;16946;49.984;10.672;2022-09-09T03:15:48;13.40;99.90
30134;DHT22;16946;49.984;10.672;2022-09-09T03:16:19;13.30;99.90
30134;DHT22;16946;49.984;10.672;2022-09-09T03:16:50;13.20;99.90
30134;DHT22;16946;49.984;10.672;2022-09-09T03:17:21;13.20;99.90
30134;DHT22;16946;49.984;10.672;2022-09-09T03:17:52;13.30;99.90
30134;DHT22;16946;49.984;10.672;2022-09-09T03:18:22;13.40;99.90
30134;DHT22;16946;49.984;10.672;2022-09-09T03:18:53;13.50;99.90
30134;DHT22;16946;49.984;10.672;2022-09-09T03:19:24;13.50;99.90
30134;DHT22;16946;49.984;10.672;2022-09-09T03:19:54;13.50;99.90
30134;DHT22;16946;49.984;10.672;2022-09-09T03:20:27;13.50;99.90
30134;DHT22;16946;49.984;10.672;2022-09-09T03:20:58;13.40;99.90
30134;DHT22;16946;49.984;10.672;2022-09-09T03:21:29;13.40;99.90
30134;DHT22;16946;49.984;10.672;2022-09-09T03:22:00;13.30;99.90
30134;DHT22;16946;49.984;10.672;2022-09-09T03:22:31;13.20;99.90
30134;DHT22;16946;49.984;10.672;2022-09-09T03:23:01;13.20;99.90
30134;DHT22;16946;49.984;10.672;2022-09-09T03:23:32;13.10;99.90
30134;DHT22;16946;49.984;10.672;2022-09-09T03:24:03;13.10;99.90
30134;DHT22;16946;49.984;10.672;2022-09-09T03:24:34;13.10;99.90
30134;DHT22;16946;49.984;10.672;2022-09-09T03:25:05;13.10;99.90
30134;DHT22;16946;49.984;10.672;2022-09-09T03:25:36;13.10;99.90
30134;DHT22;16946;49.984;10.672;2022-09-09T03:26:07;13.10;99.90
30134;DHT22;16946;49.984;10.672;2022-09-09T03:26:37;13.10;99.90
30134;DHT22;16946;49.984;10.672;2022-09-09T03:27:08;13.30;99.90
30134;DHT22;16946;49.984;10.672;2022-09-09T03:27:38;13.50;99.90
30134;DHT22;16946;49.984;10.672;2022-09-09T03:28:09;13.60;99.90
30134;DHT22;16946;49.984;10.672;2022-09-09T03:28:40;13.70;99.90
30134;DHT22;16946;49.984;10.672;2022-09-09T03:29:12;13.80;99.90
30134;DHT22;16946;49.984;10.672;2022-09-09T03:29:42;13.80;99.90
30134;DHT22;16946;49.984;10.672;2022-09-09T03:30:13;13.70;99.90
30134;DHT22;16946;49.984;10.672;2022-09-09T03:30:44;13.60;99.90
30134;DHT22;16946;49.984;10.672;2022-09-09T03:31:14;13.70;99.90
30134;DHT22;16946;49.984;10.672;2022-09-09T03:31:45;13.70;99.90
30134;DHT22;16946;49.984;10.672;2022-09-09T03:32:17;13.50;99.90
30134;DHT22;16946;49.984;10.672;2022-09-09T03:32:47;13.40;99.90
30134;DHT22;16946;49.984;10.672;2022-09-09T03:33:18;13.30;99.90
30134;DHT22;16946;49.984;10.672;2022-09-09T03:33:49;13.10;99.90
30134;DHT22;16946;49.984;10.672;2022-09-09T03:34:19;13.10;99.90
30134;DHT22;16946;49.984;10.672;2022-09-09T03:34:50;12.90;99.90
30134;DHT22;16946;49.984;10.672;2022-09-09T03:35:21;12.90;99.90
30134;DHT22;16946;49.984;10.672;2022-09-09T03:35:51;13.00;99.90
30134;DHT22;16946;49.984;10.672;2022-09-09T03:36:22;12.90;99.90
30134;DHT22;16946;49.984;10.672;2022-09-09T03:36:52;13.00;99.90
30134;DHT22;16946;49.984;10.672;2022-09-09T03:37:23;13.00;99.90
30134;DHT22;16946;49.984;10.672;2022-09-09T03:37:53;13.00;99.90
30134;DHT22;16946;49.984;10.672;2022-09-09T03:38:25;13.00;99.90
30134;DHT22;16946;49.984;10.672;2022-09-09T03:38:56;13.00;99.90
30134;DHT22;16946;49.984;10.672;2022-09-09T03:39:27;13.00;99.90
30134;DHT22;16946;49.984;10.672;2022-09-09T03:39:58;13.00;99.90
30134;DHT22;16946;49.984;10.672;2022-09-09T03:40:30;13.10;99.90
30134;DHT22;16946;49.984;10.672;2022-09-09T03:41:01;13.20;99.90
30134;DHT22;16946;49.984;10.672;2022-09-09T03:41:32;13.30;99.90
30134;DHT22;16946;49.984;10.672;2022-09-09T03:42:02;13.40;99.90
30134;DHT22;16946;49.984;10.672;2022-09-09T03:42:34;13.40;99.90
30134;DHT22;16946;49.984;10.672;2022-09-09T03:43:07;13.40;99.90
30134;DHT22;16946;49.984;10.672;2022-09-09T03:43:37;13.50;99.90
30134;DHT22;16946;49.984;10.672;2022-09-09T03:44:08;13.70;99.90
30134;DHT22;16946;49.984;10.672;2022-09-09T03:44:38;13.90;99.90
30134;DHT22;16946;49.984;10.672;2022-09-09T03:45:10;14.10;99.90
30134;DHT22;16946;49.984;10.672;2022-09-09T03:45:45;14.10;99.90
30134;DHT22;16946;49.984;10.672;2022-09-09T03:46:21;14.20;99.90
30134;DHT22;16946;49.984;10.672;2022-09-09T03:46:52;14.20;99.90
30134;DHT22;16946;49.984;10.672;2022-09-09T03:47:23;14.20;99.90
30134;DHT22;16946;49.984;10.672;2022-09-09T03:47:53;14.20;99.90
30134;DHT22;16946;49.984;10.672;2022-09-09T03:48:25;14.10;99.90
30134;DHT22;16946;49.984;10.672;2022-09-09T03:48:58;14.10;99.90
30134;DHT22;16946;49.984;10.672;2022-09-09T03:49:28;14.10;99.90
30134;DHT22;16946;49.984;10.672;2022-09-09T03:49:59;14.10;99.90
30134;DHT22;16946;49.984;10.672;2022-09-09T03:50:29;14.00;99.90
30134;DHT22;16946;49.984;10.672;2022-09-09T03:51:00;14.00;99.90
30134;DHT22;16946;49.984;10.672;2022-09-09T03:51:31;14.00;99.90
30134;DHT22;16946;49.984;10.672;2022-09-09T03:52:04;14.00;99.90
30134;DHT22;16946;49.984;10.672;2022-09-09T03:52:39;13.90;99.90
30134;DHT22;16946;49.984;10.672;2022-09-09T03:53:10;13.90;99.90
30134;DHT22;16946;49.984;10.672;2022-09-09T03:53:42;13.90;99.90
30134;DHT22;16946;49.984;10.672;2022-09-09T03:54:13;13.90;99.90
30134;DHT22;16946;49.984;10.672;2022-09-09T03:54:43;13.80;99.90
30134;DHT22;16946;49.984;10.672;2022-09-09T03:55:14;13.80;99.90
30134;DHT22;16946;49.984;10.672;2022-09-09T03:55:46;13.80;99.90
30134;DHT22;16946;49.984;10.672;2022-09-09T03:56:16;13.70;99.90
30134;DHT22;16946;49.984;10.672;2022-09-09T03:56:47;13.70;99.90
30134;DHT22;16946;49.984;10.672;2022-09-09T03:57:17;13.70;99.90
30134;DHT22;16946;49.984;10.672;2022-09-09T03:57:48;13.70;99.90
30134;DHT22;16946;49.984;10.672;2022-09-09T03:58:18;13.60;99.90
30134;DHT22;16946;49.984;10.672;2022-09-09T03:58:49;13.70;99.90
30134;DHT22;16946;49.984;10.672;2022-09-09T03:59:19;13.70;99.90
30134;DHT22;16946;49.984;10.672;2022-09-09T03:59:51;13.70;99.90
30134;DHT22;16946;49.984;10.672;2022-09-09T04:00:22;13.70;99.90
30134;DHT22;16946;49.984;10.672;2022-09-09T04:01:01;13.70;99.90
30134;DHT22;16946;49.984;10.672;2022-09-09T04:01:32;13.60;99.90
30134;DHT22;16946;49.984;10.672;2022-09-09T04:02:03;13.60;99.90
30134;DHT22;16946;49.984;10.672;2022-09-09T04:02:34;13.50;99.90
30134;DHT22;16946;49.984;10.672;2022-09-09T04:03:04;13.50;99.90
30134;DHT22;16946;49.984;10.672;2022-09-09T04:03:36;13.40;99.90
30134;DHT22;16946;49.984;10.672;2022-09-09T04:04:07;13.40;99.90
30134;DHT22;16946;49.984;10.672;2022-09-09T04:04:38;13.30;99.90
30134;DHT22;16946;49.984;10.672;2022-09-09T04:05:08;13.30;99.90
30134;DHT22;16946;49.984;10.672;2022-09-09T04:05:39;13.30;99.90
30134;DHT22;16946;49.984;10.672;2022-09-09T04:06:13;13.30;99.90
30134;DHT22;16946;49.984;10.672;2022-09-09T04:06:45;13.20;99.90
30134;DHT22;16946;49.984;10.672;2022-09-09T04:07:16;13.20;99.90
30134;DHT22;16946;49.984;10.672;2022-09-09T04:07:46;13.20;99.90
30134;DHT22;16946;49.984;10.672;2022-09-09T04:08:18;13.10;99.90
30134;DHT22;16946;49.984;10.672;2022-09-09T04:08:49;13.10;99.90
30134;DHT22;16946;49.984;10.672;2022-09-09T04:09:20;13.00;99.90
30134;DHT22;16946;49.984;10.672;2022-09-09T04:09:50;13.00;99.90
30134;DHT22;16946;49.984;10.672;2022-09-09T04:10:21;13.10;99.90
30134;DHT22;16946;49.984;10.672;2022-09-09T04:10:52;13.00;99.90
30134;DHT22;16946;49.984;10.672;2022-09-09T04:11:23;13.10;99.90
30134;DHT22;16946;49.984;10.672;2022-09-09T04:11:53;13.50;99.90
30134;DHT22;16946;49.984;10.672;2022-09-09T04:12:25;13.90;99.90
30134;DHT22;16946;49.984;10.672;2022-09-09T04:12:55;14.10;99.90
30134;DHT22;16946;49.984;10.672;2022-09-09T04:13:26;14.10;99.90
30134;DHT22;16946;49.984;10.672;2022-09-09T04:13:56;14.20;99.90
30134;DHT22;16946;49.984;10.672;2022-09-09T04:14:27;14.30;99.90
30134;DHT22;16946;49.984;10.672;2022-09-09T04:14:59;14.30;99.90
30134;DHT22;16946;49.984;10.672;2022-09-09T04:15:30;14.30;99.90